createdAt,value
2023-03-06T00:00:30.061Z,43.54
2023-03-06T00:02:59.044Z,43.66
2023-03-06T00:05:27.854Z,43.66
2023-03-06T00:07:55.878Z,43.54
2023-03-06T00:10:26.523Z,43.61
2023-03-06T00:12:55.817Z,43.69
2023-03-06T00:15:26.762Z,43.57
2023-03-06T00:17:55.107Z,43.45
2023-03-06T00:20:24.542Z,43.78
2023-03-06T00:22:52.943Z,43.83
2023-03-06T00:25:22.688Z,43.65
2023-03-06T00:27:51.257Z,43.72
2023-03-06T00:30:21.632Z,43.57
2023-03-06T00:32:51.870Z,43.83
2023-03-06T00:35:20.140Z,43.79
2023-03-06T00:37:48.255Z,43.96
2023-03-06T00:40:18.500Z,44.08
2023-03-06T00:42:46.718Z,44.10
2023-03-06T00:45:15.618Z,44.34
2023-03-06T00:47:44.208Z,44.21
2023-03-06T00:50:14.114Z,44.16
2023-03-06T00:52:42.515Z,44.21
2023-03-06T00:55:11.862Z,44.30
2023-03-06T00:57:40.043Z,44.41
2023-03-06T01:00:11.490Z,44.50
2023-03-06T01:02:39.764Z,44.43
2023-03-06T01:05:09.396Z,44.26
2023-03-06T01:07:39.025Z,44.61
2023-03-06T01:10:09.154Z,44.78
2023-03-06T01:12:37.168Z,44.44
2023-03-06T01:15:06.307Z,44.68
2023-03-06T01:17:34.237Z,44.79
2023-03-06T01:20:02.215Z,45.26
2023-03-06T01:22:30.169Z,45.15
2023-03-06T01:24:59.674Z,45.17
2023-03-06T01:27:27.637Z,45.22
2023-03-06T01:29:55.722Z,45.66
2023-03-06T01:32:23.848Z,45.50
2023-03-06T01:34:51.911Z,45.23
2023-03-06T01:37:20.114Z,45.43
2023-03-06T01:39:48.210Z,45.44
2023-03-06T01:42:17.741Z,45.57
2023-03-06T01:45:00.053Z,45.46
2023-03-06T01:47:28.255Z,45.89
2023-03-06T01:49:57.901Z,45.80
2023-03-06T01:52:30.418Z,45.58
2023-03-06T01:55:01.921Z,45.93
2023-03-06T01:57:35.142Z,45.95
2023-03-06T02:00:08.567Z,46.05
2023-03-06T02:02:37.460Z,46.21
2023-03-06T02:05:07.130Z,45.85
2023-03-06T02:07:35.825Z,46.13
2023-03-06T02:10:04.197Z,46.20
2023-03-06T02:12:34.017Z,46.35
2023-03-06T02:15:03.506Z,46.19
2023-03-06T02:17:31.631Z,46.67
2023-03-06T02:20:08.664Z,46.22
2023-03-06T02:22:44.824Z,46.56
2023-03-06T02:25:27.215Z,46.62
2023-03-06T02:27:55.619Z,46.67
2023-03-06T02:30:24.973Z,46.74
2023-03-06T02:32:53.135Z,46.50
2023-03-06T02:35:23.429Z,46.95
2023-03-06T02:37:51.724Z,46.76
2023-03-06T02:40:22.134Z,46.94
2023-03-06T02:42:53.373Z,46.38
2023-03-06T02:45:27.261Z,46.41
2023-03-06T02:47:55.178Z,46.52
2023-03-06T02:50:23.304Z,46.27
2023-03-06T02:52:51.423Z,46.38
2023-03-06T02:55:19.682Z,46.00
2023-03-06T02:57:47.815Z,46.24
2023-03-06T03:00:20.822Z,46.23
2023-03-06T03:02:48.844Z,46.01
2023-03-06T03:05:17.169Z,46.01
2023-03-06T03:07:45.262Z,46.22
2023-03-06T03:10:14.202Z,45.91
2023-03-06T03:12:42.686Z,46.23
2023-03-06T03:15:12.325Z,46.18
2023-03-06T03:17:42.797Z,45.94
2023-03-06T03:20:14.406Z,46.31
2023-03-06T03:22:42.882Z,46.46
2023-03-06T03:25:11.413Z,46.25
2023-03-06T03:27:39.596Z,46.39
2023-03-06T03:30:09.080Z,46.45
2023-03-06T03:32:37.122Z,46.31
2023-03-06T03:35:09.397Z,46.34
2023-03-06T03:37:37.887Z,46.29
2023-03-06T03:40:07.383Z,46.32
2023-03-06T03:42:35.657Z,46.23
2023-03-06T03:45:03.931Z,46.33
2023-03-06T03:47:31.999Z,46.04
2023-03-06T03:49:59.960Z,46.20
2023-03-06T03:52:29.397Z,46.03
2023-03-06T03:54:57.476Z,45.80
2023-03-06T03:57:25.501Z,46.23
2023-03-06T03:59:53.888Z,46.10
2023-03-06T04:02:22.737Z,46.30
2023-03-06T04:04:51.576Z,46.02
2023-03-06T04:07:19.525Z,46.48
2023-03-06T04:09:49.154Z,46.49
2023-03-06T04:12:17.197Z,46.85
2023-03-06T04:14:45.142Z,47.12
2023-03-06T04:17:13.121Z,47.14
2023-03-06T04:19:41.154Z,46.88
2023-03-06T04:22:10.603Z,46.80
2023-03-06T04:24:38.592Z,46.94
2023-03-06T04:27:08.308Z,46.85
2023-03-06T04:29:36.180Z,47.08
2023-03-06T04:32:04.403Z,46.94
2023-03-06T04:34:32.520Z,47.20
2023-03-06T04:37:00.444Z,47.58
2023-03-06T04:39:28.467Z,47.28
2023-03-06T04:41:56.491Z,47.30
2023-03-06T04:44:26.348Z,47.33
2023-03-06T04:46:54.368Z,47.41
2023-03-06T04:49:22.312Z,47.26
2023-03-06T04:51:50.302Z,47.33
2023-03-06T04:54:19.117Z,47.35
2023-03-06T04:56:47.232Z,47.52
2023-03-06T04:59:15.166Z,47.69
2023-03-06T05:01:44.713Z,47.69
2023-03-06T05:04:12.721Z,47.82
2023-03-06T05:06:41.039Z,47.81
2023-03-06T05:09:09.094Z,48.29
2023-03-06T05:11:37.009Z,48.19
2023-03-06T05:14:05.056Z,48.23
2023-03-06T05:16:33.182Z,48.46
2023-03-06T05:19:02.798Z,48.41
2023-03-06T05:21:32.341Z,48.50
2023-03-06T05:24:00.589Z,48.38
2023-03-06T05:26:28.619Z,48.17
2023-03-06T05:28:56.628Z,48.20
2023-03-06T05:31:24.679Z,48.68
2023-03-06T05:33:52.782Z,48.42
2023-03-06T05:36:22.326Z,48.33
2023-03-06T05:38:50.423Z,48.40
2023-03-06T05:41:18.560Z,48.48
2023-03-06T05:43:46.877Z,48.22
2023-03-06T05:46:15.377Z,48.07
2023-03-06T05:48:45.324Z,47.87
2023-03-06T05:51:14.368Z,47.84
2023-03-06T05:53:44.032Z,48.37
2023-03-06T05:56:14.647Z,48.40
2023-03-06T05:58:42.725Z,48.59
2023-03-06T06:01:11.822Z,49.03
2023-03-06T06:03:40.147Z,49.19
2023-03-06T06:06:09.232Z,49.34
2023-03-06T06:08:38.735Z,49.37
2023-03-06T06:11:09.889Z,49.55
2023-03-06T06:13:38.624Z,49.77
2023-03-06T06:16:11.599Z,49.65
2023-03-06T06:18:41.418Z,49.85
2023-03-06T06:21:11.266Z,49.92
2023-03-06T06:23:39.355Z,50.12
2023-03-06T06:26:10.391Z,49.93
2023-03-06T06:28:38.375Z,50.22
2023-03-06T06:31:10.788Z,50.17
2023-03-06T06:33:39.416Z,50.36
2023-03-06T06:36:16.964Z,50.46
2023-03-06T06:38:45.381Z,50.55
2023-03-06T06:44:08.523Z,51.18
2023-03-06T06:47:20.818Z,51.36
2023-03-06T06:49:25.159Z,51.21
2023-03-06T06:51:53.248Z,51.44
2023-03-06T06:54:22.388Z,51.09
2023-03-06T06:56:52.115Z,50.94
2023-03-06T06:59:20.372Z,51.17
2023-03-06T07:01:48.745Z,51.14
2023-03-06T07:04:18.150Z,50.73
2023-03-06T07:06:46.967Z,51.07
2023-03-06T07:09:16.266Z,51.63
2023-03-06T07:11:44.295Z,51.85
2023-03-06T07:14:14.116Z,52.10
2023-03-06T07:16:42.294Z,52.05
2023-03-06T07:19:10.295Z,52.28
2023-03-06T07:21:38.456Z,52.54
2023-03-06T07:24:06.920Z,52.46
2023-03-06T07:26:36.980Z,52.45
2023-03-06T07:29:06.103Z,51.95
2023-03-06T07:31:36.295Z,52.18
2023-03-06T07:34:05.094Z,51.81
2023-03-06T07:36:34.366Z,51.86
2023-03-06T07:39:05.651Z,51.61
2023-03-06T07:41:33.767Z,51.85
2023-03-06T07:44:04.407Z,51.98
2023-03-06T07:46:36.088Z,51.59
2023-03-06T07:49:06.049Z,51.68
2023-03-06T07:51:34.068Z,51.25
2023-03-06T07:54:02.137Z,51.48
2023-03-06T07:56:30.213Z,51.52
2023-03-06T07:58:58.331Z,51.27
2023-03-06T08:01:26.425Z,51.82
2023-03-06T08:03:55.098Z,51.67
2023-03-06T08:06:26.628Z,51.86
2023-03-06T08:08:56.644Z,51.81
2023-03-06T08:11:26.416Z,51.28
2023-03-06T08:13:55.052Z,51.51
2023-03-06T08:16:24.992Z,51.40
2023-03-06T08:18:53.240Z,50.93
2023-03-06T08:21:23.612Z,50.69
2023-03-06T08:23:53.362Z,50.60
2023-03-06T08:26:24.582Z,50.69
2023-03-06T08:28:53.192Z,50.26
2023-03-06T08:31:26.825Z,49.84
2023-03-06T08:33:56.549Z,50.08
2023-03-06T08:36:25.040Z,50.04
2023-03-06T08:38:54.677Z,49.95
2023-03-06T08:41:22.871Z,50.00
2023-03-06T08:43:51.898Z,50.01
2023-03-06T08:46:22.139Z,49.56
2023-03-06T08:48:50.396Z,49.51
2023-03-06T08:51:19.420Z,49.56
2023-03-06T08:53:48.265Z,49.65
2023-03-06T08:56:19.615Z,49.29
2023-03-06T08:58:48.413Z,48.82
2023-03-06T09:01:17.575Z,48.79
2023-03-06T09:03:48.424Z,49.05
2023-03-06T09:06:17.462Z,49.00
2023-03-06T09:08:45.668Z,48.61
2023-03-06T09:11:16.439Z,48.52
2023-03-06T09:13:46.177Z,48.56
2023-03-06T09:16:14.771Z,48.55
2023-03-06T09:18:43.623Z,48.48
2023-03-06T09:21:12.379Z,48.44
2023-03-06T09:23:41.398Z,48.94
2023-03-06T09:26:09.865Z,48.45
2023-03-06T09:28:39.337Z,48.23
2023-03-06T09:31:14.209Z,48.67
2023-03-06T09:33:42.920Z,48.49
2023-03-06T09:36:27.234Z,48.34
2023-03-06T09:38:55.346Z,48.62
2023-03-06T09:41:28.646Z,48.53
2023-03-06T09:44:04.962Z,48.62
2023-03-06T09:46:47.869Z,48.77
2023-03-06T09:49:36.334Z,48.73
2023-03-06T09:52:15.896Z,49.21
2023-03-06T09:54:55.107Z,49.25
2023-03-06T09:57:27.554Z,49.82
2023-03-06T09:59:58.433Z,49.86
2023-03-06T10:02:40.701Z,50.37
2023-03-06T10:05:14.888Z,50.50
2023-03-06T10:07:47.399Z,51.23
2023-03-06T10:10:26.759Z,51.72
2023-03-06T10:13:02.431Z,52.15
2023-03-06T10:15:34.312Z,52.03
2023-03-06T10:18:05.933Z,52.52
2023-03-06T10:20:38.079Z,52.31
2023-03-06T10:23:26.843Z,52.09
2023-03-06T10:26:02.161Z,52.19
2023-03-06T10:28:35.541Z,52.15
2023-03-06T10:31:10.770Z,52.09
2023-03-06T10:33:53.561Z,51.50
2023-03-06T10:36:23.082Z,50.46
2023-03-06T10:38:51.590Z,50.48
2023-03-06T10:41:28.915Z,49.24
2023-03-06T10:44:19.765Z,48.74
2023-03-06T10:46:51.166Z,48.86
2023-03-06T10:49:30.191Z,48.01
2023-03-06T10:52:00.808Z,48.15
2023-03-06T10:54:30.642Z,48.66
2023-03-06T10:56:58.680Z,48.45
2023-03-06T10:59:29.527Z,47.28
2023-03-06T11:02:01.622Z,47.30
2023-03-06T11:04:34.088Z,47.16
2023-03-06T11:07:15.191Z,47.88
2023-03-06T11:09:44.570Z,48.10
2023-03-06T11:12:23.505Z,48.63
2023-03-06T11:15:11.896Z,47.60
2023-03-06T11:17:52.460Z,47.43
2023-03-06T11:20:24.488Z,47.36
2023-03-06T11:22:56.646Z,47.20
2023-03-06T11:25:31.131Z,47.38
2023-03-06T11:28:03.538Z,47.29
2023-03-06T11:30:39.950Z,47.51
2023-03-06T11:33:18.580Z,47.93
2023-03-06T11:35:59.613Z,48.54
2023-03-06T11:38:37.285Z,49.16
2023-03-06T11:41:09.561Z,49.36
2023-03-06T11:43:46.935Z,49.31
2023-03-06T11:46:22.540Z,48.81
2023-03-06T11:48:54.961Z,48.61
2023-03-06T11:51:28.667Z,48.65
2023-03-06T11:53:59.771Z,48.46
2023-03-06T11:56:36.750Z,47.79
2023-03-06T11:59:22.396Z,47.70
2023-03-06T12:02:00.794Z,48.39
2023-03-06T12:04:47.028Z,48.77
2023-03-06T12:07:23.926Z,48.67
2023-03-06T12:09:58.823Z,49.21
2023-03-06T12:12:58.210Z,49.13
2023-03-06T12:15:38.202Z,48.89
2023-03-06T12:18:18.172Z,48.59
2023-03-06T12:20:57.427Z,48.61
2023-03-06T12:23:43.398Z,48.36
2023-03-06T12:26:30.965Z,48.51
2023-03-06T12:29:15.030Z,48.05
2023-03-06T12:31:58.055Z,47.84
2023-03-06T12:34:39.389Z,47.54
2023-03-06T12:37:19.106Z,47.92
2023-03-06T12:40:11.858Z,48.61
2023-03-06T12:43:01.353Z,49.54
2023-03-06T12:45:32.712Z,49.50
2023-03-06T12:48:01.893Z,49.66
2023-03-06T12:50:32.365Z,50.17
2023-03-06T12:53:04.255Z,50.61
2023-03-06T12:55:41.399Z,50.99
2023-03-06T12:58:47.610Z,48.87
2023-03-06T13:01:31.369Z,47.85
2023-03-06T13:04:26.956Z,47.47
2023-03-06T13:07:10.993Z,47.90
2023-03-06T13:09:57.415Z,48.30
2023-03-06T13:12:43.164Z,47.68
2023-03-06T13:15:46.846Z,46.73
2023-03-06T13:18:49.220Z,46.13
2023-03-06T13:21:46.946Z,45.83
2023-03-06T13:24:19.075Z,44.75
2023-03-06T13:27:01.763Z,44.51
2023-03-06T13:30:27.615Z,44.61
2023-03-06T13:32:57.061Z,44.90
2023-03-06T13:35:50.156Z,45.38
2023-03-06T13:38:38.668Z,45.36
2023-03-06T13:41:35.392Z,44.82
2023-03-06T13:44:26.217Z,43.45
2023-03-06T13:47:01.645Z,43.07
2023-03-06T13:49:30.544Z,43.37
2023-03-06T13:52:08.309Z,43.35
2023-03-06T13:54:51.206Z,43.25
2023-03-06T13:57:38.234Z,43.22
2023-03-06T14:00:37.152Z,43.92
2023-03-06T14:03:49.158Z,44.78
2023-03-06T14:06:43.450Z,45.47
2023-03-06T14:09:23.738Z,45.33
2023-03-06T14:11:54.389Z,45.67
2023-03-06T14:14:31.988Z,46.70
2023-03-06T14:17:00.596Z,47.25
2023-03-06T14:19:33.804Z,47.81
2023-03-06T14:22:04.325Z,47.93
2023-03-06T14:24:37.289Z,48.03
2023-03-06T14:27:05.287Z,48.27
2023-03-06T14:29:34.750Z,48.10
2023-03-06T14:32:06.117Z,47.82
2023-03-06T14:34:40.995Z,47.13
2023-03-06T14:37:22.188Z,46.96
2023-03-06T14:39:50.546Z,46.62
2023-03-06T14:42:20.570Z,45.99
2023-03-06T14:44:49.736Z,46.26
2023-03-06T14:47:27.608Z,46.29
2023-03-06T14:50:23.225Z,46.69
2023-03-06T14:52:51.654Z,47.37
2023-03-06T14:55:21.716Z,48.31
2023-03-06T14:57:53.555Z,48.86
2023-03-06T15:00:24.861Z,49.89
2023-03-06T15:02:55.892Z,50.54
2023-03-06T15:05:28.939Z,51.05
2023-03-06T15:08:01.009Z,51.82
2023-03-06T15:10:36.500Z,52.55
2023-03-06T15:13:19.776Z,53.44
2023-03-06T15:15:57.593Z,54.49
2023-03-06T15:18:34.051Z,54.99
2023-03-06T15:21:17.437Z,55.72
2023-03-06T15:23:47.687Z,56.03
2023-03-06T15:26:22.879Z,56.00
2023-03-06T15:29:13.972Z,56.42
2023-03-06T15:31:43.267Z,56.46
2023-03-06T15:34:25.687Z,56.19
2023-03-06T15:36:57.113Z,55.66
2023-03-06T15:39:31.188Z,55.19
2023-03-06T15:41:59.640Z,54.52
2023-03-06T15:44:29.494Z,54.24
2023-03-06T15:47:07.748Z,53.79
2023-03-06T15:49:37.889Z,53.58
2023-03-06T15:52:08.263Z,53.55
2023-03-06T15:54:36.998Z,52.19
2023-03-06T15:57:06.456Z,51.62
2023-03-06T15:59:39.652Z,50.95
2023-03-06T16:02:16.516Z,51.04
2023-03-06T16:04:44.941Z,51.16
2023-03-06T16:07:15.031Z,51.43
2023-03-06T16:09:43.794Z,51.82
2023-03-06T16:12:18.002Z,51.56
2023-03-06T16:14:47.309Z,51.65
2023-03-06T16:17:16.252Z,51.55
2023-03-06T16:19:44.668Z,51.22
2023-03-06T16:22:14.762Z,52.02
2023-03-06T16:24:43.713Z,52.94
2023-03-06T16:27:18.189Z,53.85
2023-03-06T16:29:46.133Z,54.14
2023-03-06T16:32:14.270Z,54.50
2023-03-06T16:34:42.358Z,54.49
2023-03-06T16:37:15.607Z,54.07
2023-03-06T16:39:44.951Z,54.26
2023-03-06T16:42:13.006Z,54.38
2023-03-06T16:44:41.868Z,54.28
2023-03-06T16:47:13.552Z,54.64
2023-03-06T16:49:42.281Z,54.36
2023-03-06T16:52:11.884Z,54.43
2023-03-06T16:54:42.843Z,54.09
2023-03-06T16:57:15.670Z,54.02
2023-03-06T16:59:43.698Z,53.54
2023-03-06T17:02:12.317Z,53.19
2023-03-06T17:04:40.589Z,52.63
2023-03-06T17:07:08.652Z,52.08
2023-03-06T17:09:36.612Z,52.50
2023-03-06T17:12:06.185Z,53.10
2023-03-06T17:14:35.155Z,53.95
2023-03-06T17:17:03.185Z,54.08
2023-03-06T17:19:31.349Z,53.97
2023-03-06T17:21:59.240Z,53.92
2023-03-06T17:24:27.878Z,53.45
2023-03-06T17:26:56.123Z,52.87
2023-03-06T17:29:25.720Z,52.82
2023-03-06T17:31:54.041Z,52.46
2023-03-06T17:34:24.492Z,52.60
2023-03-06T17:36:52.578Z,52.51
2023-03-06T17:39:20.567Z,52.90
2023-03-06T17:41:48.722Z,52.68
2023-03-06T17:44:17.374Z,52.36
2023-03-06T17:46:47.050Z,52.61
2023-03-06T17:49:15.336Z,52.41
2023-03-06T17:51:43.783Z,52.58
2023-03-06T17:54:12.057Z,52.58
2023-03-06T17:56:39.967Z,52.36
2023-03-06T17:59:08.120Z,52.61
2023-03-06T18:01:36.344Z,53.28
2023-03-06T18:04:05.888Z,52.89
2023-03-06T18:06:35.130Z,53.49
2023-03-06T18:09:03.803Z,53.24
2023-03-06T18:11:32.593Z,53.15
2023-03-06T18:14:00.836Z,53.37
2023-03-06T18:16:28.901Z,52.80
2023-03-06T18:18:58.963Z,52.63
2023-03-06T18:21:29.120Z,53.00
2023-03-06T18:23:59.087Z,53.03
2023-03-06T18:26:28.948Z,52.85
2023-03-06T18:28:58.368Z,53.05
2023-03-06T18:31:28.928Z,52.86
2023-03-06T18:33:59.089Z,52.51
2023-03-06T18:36:30.306Z,52.48
2023-03-06T18:38:59.342Z,52.23
2023-03-06T18:41:27.323Z,52.01
2023-03-06T18:43:56.364Z,51.72
2023-03-06T18:46:25.965Z,51.10
2023-03-06T18:48:53.999Z,51.51
2023-03-06T18:51:22.039Z,51.64
2023-03-06T18:53:51.487Z,51.46
2023-03-06T18:56:21.623Z,51.37
2023-03-06T18:58:50.622Z,51.43
2023-03-06T19:01:18.696Z,51.40
2023-03-06T19:03:47.710Z,51.28
2023-03-06T19:06:18.331Z,51.34
2023-03-06T19:08:46.462Z,51.43
2023-03-06T19:11:18.756Z,51.22
2023-03-06T19:13:46.673Z,50.17
2023-03-06T19:16:19.227Z,49.46
2023-03-06T19:18:47.268Z,49.46
2023-03-06T19:21:17.020Z,49.30
2023-03-06T19:23:45.468Z,49.41
2023-03-06T19:26:15.463Z,49.37
2023-03-06T19:28:44.587Z,49.36
2023-03-06T19:31:15.954Z,48.96
2023-03-06T19:33:43.917Z,49.30
2023-03-06T19:36:14.917Z,49.29
2023-03-06T19:38:43.545Z,49.22
2023-03-06T19:41:13.534Z,48.75
2023-03-06T19:43:43.852Z,49.12
2023-03-06T19:46:13.080Z,48.57
2023-03-06T19:48:41.050Z,48.55
2023-03-06T19:51:09.466Z,48.50
2023-03-06T19:53:38.825Z,48.48
2023-03-06T19:56:09.521Z,48.35
2023-03-06T19:58:37.549Z,48.50
2023-03-06T20:01:09.474Z,48.40
2023-03-06T20:03:37.546Z,48.33
2023-03-06T20:06:09.195Z,48.34
2023-03-06T20:08:37.751Z,48.26
2023-03-06T20:11:06.220Z,47.97
2023-03-06T20:13:34.249Z,48.01
2023-03-06T20:16:04.646Z,48.00
2023-03-06T20:18:34.500Z,48.15
2023-03-06T20:21:04.506Z,48.26
2023-03-06T20:23:33.163Z,47.74
2023-03-06T20:26:03.562Z,47.95
2023-03-06T20:28:32.069Z,47.93
2023-03-06T20:31:00.244Z,47.90
2023-03-06T20:33:28.201Z,47.38
2023-03-06T20:35:57.660Z,47.61
2023-03-06T20:38:26.160Z,47.55
2023-03-06T20:41:05.632Z,47.28
2023-03-06T20:43:47.516Z,47.23
2023-03-06T20:46:16.253Z,46.86
2023-03-06T20:48:44.800Z,46.84
2023-03-06T20:51:18.925Z,46.61
2023-03-06T20:53:49.052Z,46.85
2023-03-06T20:56:19.158Z,46.32
2023-03-06T20:58:47.260Z,46.13
2023-03-06T21:01:20.256Z,45.60
2023-03-06T21:03:49.349Z,45.13
2023-03-06T21:06:20.041Z,45.41
2023-03-06T21:08:48.963Z,45.43
2023-03-06T21:11:17.726Z,45.81
2023-03-06T21:13:45.976Z,45.89
2023-03-06T21:16:15.778Z,46.29
2023-03-06T21:18:44.413Z,46.07
2023-03-06T21:21:14.340Z,45.93
2023-03-06T21:23:44.017Z,46.11
2023-03-06T21:26:13.634Z,45.91
2023-03-06T21:28:41.632Z,45.87
2023-03-06T21:31:12.421Z,46.03
2023-03-06T21:33:40.840Z,45.98
2023-03-06T21:36:09.207Z,46.25
2023-03-06T21:38:37.819Z,45.88
2023-03-06T21:41:12.099Z,45.45
2023-03-06T21:43:40.680Z,45.65
2023-03-06T21:46:09.144Z,45.42
2023-03-06T21:48:37.763Z,45.53
2023-03-06T21:51:10.226Z,45.81
2023-03-06T21:53:41.192Z,45.74
2023-03-06T21:56:11.405Z,45.88
2023-03-06T21:58:39.558Z,45.89
2023-03-06T22:01:11.214Z,46.01
2023-03-06T22:03:40.158Z,46.50
2023-03-06T22:06:10.158Z,46.32
2023-03-06T22:08:39.232Z,46.49
2023-03-06T22:11:11.095Z,46.59
2023-03-06T22:13:39.661Z,46.73
2023-03-06T22:16:08.254Z,46.49
2023-03-06T22:18:36.540Z,46.36
2023-03-06T22:21:09.026Z,46.19
2023-03-06T22:23:37.106Z,45.86
2023-03-06T22:26:05.644Z,46.46
2023-03-06T22:28:35.452Z,46.22
2023-03-06T22:31:08.385Z,46.20
2023-03-06T22:33:36.521Z,46.32
2023-03-06T22:36:07.594Z,46.64
2023-03-06T22:38:36.256Z,46.55
2023-03-06T22:41:04.740Z,46.77
2023-03-06T22:43:35.441Z,46.68
2023-03-06T22:46:04.556Z,46.88
2023-03-06T22:48:33.142Z,46.71
2023-03-06T22:51:04.785Z,47.04
2023-03-06T22:53:32.834Z,47.07
2023-03-06T22:56:01.001Z,47.28
2023-03-06T22:58:35.632Z,47.33
2023-03-06T23:01:09.994Z,47.44
2023-03-06T23:03:39.235Z,47.52
2023-03-06T23:06:09.390Z,47.48
2023-03-06T23:08:37.564Z,47.37
2023-03-06T23:11:10.033Z,47.40
2023-03-06T23:13:39.043Z,47.52
2023-03-06T23:16:10.478Z,47.80
2023-03-06T23:18:39.138Z,47.52
2023-03-06T23:21:08.849Z,47.32
2023-03-06T23:23:37.362Z,47.32
2023-03-06T23:26:05.722Z,47.29
2023-03-06T23:28:34.914Z,47.69
2023-03-06T23:31:09.610Z,47.02
2023-03-06T23:33:39.841Z,47.04
2023-03-06T23:36:10.361Z,46.98
2023-03-06T23:38:38.653Z,47.31
2023-03-06T23:41:08.374Z,47.06
2023-03-06T23:43:36.558Z,47.18
2023-03-06T23:46:06.400Z,46.98
2023-03-06T23:48:37.256Z,46.96
2023-03-06T23:51:07.412Z,46.95
2023-03-06T23:53:35.797Z,46.96
2023-03-06T23:56:06.623Z,47.15
2023-03-06T23:58:35.267Z,47.02
